Terminal Aerodrome Forecast
Issued by NWS

Home | Current Version | Previous Version | Text Only | Print | Product List | Glossary On
Versions: 1 2 3 4 5 6 7 8 9 10 11 12 13 14 15 16
000
FTUS43 KICT 191346 AAA
TAFHUT
TAF AMD
KHUT 191346Z 1914/2012 16010KT 2SM BR OVC006
      TEMPO 1914/1916 1/2SM FG BKN003
     FM191800 17012KT P6SM SCT003 OVC012
     FM192300 16016G24KT P6SM BKN015
     FM200100 16015G23KT P6SM VCSH BKN010
     FM200600 17013KT P6SM OVC008=

USA.gov is the U.S. government's official web portal to all federal, state and local government web resources and services.